Time;durP1;ratioP1;P1;durP2;ratioP2;P2;SDS_P1;SDS_P2;PMS_P1;PMS_P2;Temp;Humidity;BMP_temperature;BMP_pressure;BME280_temperature;BME280_humidity;BME280_pressure;Samples;Min_cycle;Max_cycle;Signal;HPM_P1;HPM_P2
2024/04/17 00:01:32;;;;;;;2.23;1.57;;;;;;;;;;5242997;27;20007;-77
2024/04/17 00:03:58;;;;;;;2.30;1.80;;;;;;;;;;5272997;27;20002;-76
2024/04/17 00:06:24;;;;;;;2.03;1.83;;;;;;;;;;5242944;27;20006;-77
2024/04/17 00:08:50;;;;;;;3.20;2.37;;;;;;;;;;5242860;27;20101;-76
2024/04/17 00:11:16;;;;;;;3.27;2.40;;;;;;;;;;5272895;27;20097;-76
2024/04/17 00:13:41;;;;;;;2.83;2.03;;;;;;;;;;5242955;27;20021;-77
2024/04/17 00:16:07;;;;;;;3.17;2.07;;;;;;;;;;5242721;27;20443;-77
2024/04/17 00:18:33;;;;;;;4.00;2.93;;;;;;;;;;5272824;27;20162;-76
2024/04/17 00:20:59;;;;;;;2.43;2.23;;;;;;;;;;5215154;27;20003;-77
2024/04/17 00:23:25;;;;;;;3.07;2.00;;;;;;;;;;5242303;27;20002;-76
2024/04/17 00:25:51;;;;;;;3.10;2.10;;;;;;;;;;5272350;27;20025;-75
2024/04/17 00:28:17;;;;;;;2.20;2.00;;;;;;;;;;5242183;27;20046;-76
2024/04/17 00:30:43;;;;;;;3.20;2.30;;;;;;;;;;5242496;27;20006;-77
2024/04/17 00:33:08;;;;;;;2.70;2.30;;;;;;;;;;5242753;27;20439;-76
2024/04/17 00:35:34;;;;;;;3.40;2.53;;;;;;;;;;5242405;27;20446;-75
2024/04/17 00:38:00;;;;;;;4.10;2.77;;;;;;;;;;5272155;27;20093;-77
2024/04/17 00:40:25;;;;;;;3.37;2.50;;;;;;;;;;5242439;27;20017;-77
2024/04/17 00:42:52;;;;;;;3.53;2.50;;;;;;;;;;5272308;27;20014;-78
2024/04/17 00:45:18;;;;;;;4.73;2.73;;;;;;;;;;5242029;27;20006;-76
2024/04/17 00:47:43;;;;;;;3.30;2.23;;;;;;;;;;5272613;27;20078;-77
2024/04/17 00:50:11;;;;;;;4.10;2.57;;;;;;;;;;5242467;27;20067;-77
2024/04/17 00:52:38;;;;;;;4.07;2.50;;;;;;;;;;5272191;27;20006;-76
2024/04/17 00:55:05;;;;;;;4.50;2.97;;;;;;;;;;5242746;27;20434;-77
2024/04/17 00:57:31;;;;;;;4.13;2.33;;;;;;;;;;5271577;27;20013;-74
2024/04/17 00:59:59;;;;;;;2.73;2.53;;;;;;;;;;5243178;27;20011;-76
2024/04/17 01:02:25;;;;;;;4.33;3.00;;;;;;;;;;5262534;27;20037;-76
2024/04/17 01:04:50;;;;;;;4.03;2.70;;;;;;;;;;5243003;27;20525;-76
2024/04/17 01:07:16;;;;;;;5.57;3.00;;;;;;;;;;5267998;27;20445;-76
2024/04/17 01:09:41;;;;;;;4.57;2.80;;;;;;;;;;5276220;27;20029;-77
2024/04/17 01:12:07;;;;;;;4.63;2.87;;;;;;;;;;5307265;27;20541;-77
2024/04/17 01:14:32;;;;;;;4.77;3.00;;;;;;;;;;5276319;27;20016;-77
2024/04/17 01:16:58;;;;;;;6.47;2.87;;;;;;;;;;5306870;27;20001;-77
2024/04/17 01:19:25;;;;;;;4.73;2.97;;;;;;;;;;5276507;27;20029;-78
2024/04/17 01:21:51;;;;;;;7.03;3.30;;;;;;;;;;5254207;27;20026;-77
2024/04/17 01:24:17;;;;;;;6.53;3.00;;;;;;;;;;5242731;27;20290;-77
2024/04/17 01:26:42;;;;;;;6.13;3.50;;;;;;;;;;5272500;27;20017;-76
2024/04/17 01:29:08;;;;;;;7.43;3.90;;;;;;;;;;5242444;27;20006;-77
2024/04/17 01:31:35;;;;;;;5.40;3.57;;;;;;;;;;5241849;27;20077;-77
2024/04/17 01:34:01;;;;;;;5.67;3.47;;;;;;;;;;5242353;27;20027;-78
2024/04/17 01:36:26;;;;;;;5.27;3.73;;;;;;;;;;5271339;27;20482;-78
2024/04/17 01:38:52;;;;;;;5.53;4.00;;;;;;;;;;5242542;27;20188;-76
2024/04/17 01:41:18;;;;;;;6.27;4.40;;;;;;;;;;5242230;27;20101;-78
2024/04/17 01:43:43;;;;;;;8.93;4.37;;;;;;;;;;5241700;27;20087;-76
2024/04/17 01:46:09;;;;;;;6.07;4.17;;;;;;;;;;5272034;27;20003;-75
2024/04/17 01:48:34;;;;;;;6.63;4.40;;;;;;;;;;5241895;27;20002;-75
2024/04/17 01:51:03;;;;;;;6.40;3.77;;;;;;;;;;5272169;27;20005;-75
2024/04/17 01:53:29;;;;;;;7.93;4.50;;;;;;;;;;5272508;27;20646;-75
2024/04/17 01:55:55;;;;;;;7.00;4.13;;;;;;;;;;5242548;27;20003;-76
2024/04/17 01:58:21;;;;;;;8.80;5.00;;;;;;;;;;5278407;27;19999;-76
2024/04/17 02:00:47;;;;;;;7.07;4.53;;;;;;;;;;5250809;27;20059;-76
2024/04/17 02:03:12;;;;;;;6.40;4.47;;;;;;;;;;5250516;27;20018;-75
2024/04/17 02:05:38;;;;;;;7.47;5.10;;;;;;;;;;5245034;27;20014;-76
2024/04/17 02:08:04;;;;;;;8.77;4.97;;;;;;;;;;5243951;27;19998;-75
2024/04/17 02:10:29;;;;;;;8.27;4.90;;;;;;;;;;5246810;27;20007;-78
2024/04/17 02:12:55;;;;;;;7.80;5.20;;;;;;;;;;5245520;27;20017;-76
2024/04/17 02:15:20;;;;;;;6.03;4.83;;;;;;;;;;5244354;27;20010;-78
2024/04/17 02:17:46;;;;;;;9.60;4.50;;;;;;;;;;5274898;27;20444;-76
2024/04/17 02:20:11;;;;;;;9.00;5.23;;;;;;;;;;5245151;27;20084;-77
2024/04/17 02:22:37;;;;;;;7.67;4.70;;;;;;;;;;5244699;27;20418;-76
2024/04/17 02:25:03;;;;;;;9.33;4.90;;;;;;;;;;5274382;27;20014;-77
2024/04/17 02:27:29;;;;;;;8.27;5.67;;;;;;;;;;5274748;27;20455;-76
2024/04/17 02:29:54;;;;;;;7.30;4.87;;;;;;;;;;5274936;27;20378;-77
2024/04/17 02:32:20;;;;;;;10.03;5.43;;;;;;;;;;5245863;27;20013;-77
2024/04/17 02:34:45;;;;;;;5.63;4.53;;;;;;;;;;5246358;27;20003;-76
2024/04/17 02:37:11;;;;;;;8.73;5.37;;;;;;;;;;5245576;27;20018;-75
2024/04/17 02:39:37;;;;;;;8.17;5.80;;;;;;;;;;5276864;27;20101;-76
2024/04/17 02:42:03;;;;;;;8.23;5.60;;;;;;;;;;5278027;27;20006;-77
2024/04/17 02:44:29;;;;;;;7.53;5.10;;;;;;;;;;5244974;27;20077;-77
2024/04/17 02:46:56;;;;;;;9.10;6.50;;;;;;;;;;5244590;27;20018;-77
2024/04/17 02:49:22;;;;;;;9.97;5.37;;;;;;;;;;5244872;27;20011;-77
2024/04/17 02:51:49;;;;;;;9.63;6.00;;;;;;;;;;5244982;27;20017;-77
2024/04/17 02:54:14;;;;;;;9.47;5.87;;;;;;;;;;5244740;27;20006;-76
2024/04/17 02:56:40;;;;;;;8.63;5.70;;;;;;;;;;5244488;27;20488;-77
2024/04/17 02:59:05;;;;;;;9.83;6.40;;;;;;;;;;5244312;27;20076;-76
2024/04/17 03:01:31;;;;;;;7.27;4.93;;;;;;;;;;5244468;27;20021;-75
2024/04/17 03:03:57;;;;;;;9.03;5.40;;;;;;;;;;5245155;27;20013;-75
2024/04/17 03:06:23;;;;;;;9.03;5.93;;;;;;;;;;5274267;27;20002;-76
2024/04/17 03:08:48;;;;;;;10.47;5.30;;;;;;;;;;5244263;27;20010;-76
2024/04/17 03:11:14;;;;;;;9.70;5.57;;;;;;;;;;5244445;27;20006;-77
2024/04/17 03:13:39;;;;;;;8.77;4.83;;;;;;;;;;5244555;27;20087;-77
2024/04/17 03:16:05;;;;;;;12.23;6.00;;;;;;;;;;5244947;27;20003;-78
2024/04/17 03:18:32;;;;;;;9.13;5.77;;;;;;;;;;5244894;27;20450;-77
2024/04/17 03:21:02;;;;;;;8.67;5.43;;;;;;;;;;5244543;27;20042;-76
2024/04/17 03:23:27;;;;;;;8.53;5.40;;;;;;;;;;5244595;27;20491;-76
2024/04/17 03:25:58;;;;;;;8.33;5.47;;;;;;;;;;5273672;27;20018;-76
2024/04/17 03:28:24;;;;;;;8.63;5.77;;;;;;;;;;5273707;27;20006;-76
2024/04/17 03:30:49;;;;;;;9.20;6.23;;;;;;;;;;5243557;27;20013;-77
2024/04/17 03:33:15;;;;;;;8.53;6.00;;;;;;;;;;5273371;27;20622;-75
2024/04/17 03:35:41;;;;;;;8.10;6.07;;;;;;;;;;5272943;27;20393;-75
2024/04/17 03:38:07;;;;;;;11.10;6.63;;;;;;;;;;5243676;27;20021;-75
2024/04/17 03:40:33;;;;;;;8.83;6.13;;;;;;;;;;5215926;27;20480;-78
2024/04/17 03:42:58;;;;;;;9.33;5.83;;;;;;;;;;5273704;27;20359;-78
2024/04/17 03:45:24;;;;;;;8.77;5.13;;;;;;;;;;5243342;27;20398;-76
2024/04/17 03:47:49;;;;;;;6.63;5.43;;;;;;;;;;5214989;27;20014;-76
2024/04/17 03:50:15;;;;;;;7.37;4.73;;;;;;;;;;5243490;27;20021;-77
2024/04/17 03:52:40;;;;;;;7.07;4.93;;;;;;;;;;5243615;27;20050;-75
2024/04/17 03:55:06;;;;;;;10.37;6.13;;;;;;;;;;5243729;27;20557;-76
2024/04/17 03:57:32;;;;;;;8.43;5.47;;;;;;;;;;5273242;27;20006;-75
2024/04/17 03:59:57;;;;;;;9.80;5.20;;;;;;;;;;5244284;27;20475;-77
2024/04/17 04:02:23;;;;;;;7.97;5.17;;;;;;;;;;5243956;27;20017;-77
2024/04/17 04:04:49;;;;;;;9.67;5.87;;;;;;;;;;5242947;27;20021;-78
2024/04/17 04:07:15;;;;;;;8.63;5.40;;;;;;;;;;5243018;27;20002;-77
2024/04/17 04:09:41;;;;;;;8.07;5.37;;;;;;;;;;5242874;27;20017;-76
2024/04/17 04:12:06;;;;;;;7.47;5.20;;;;;;;;;;5243335;27;20014;-78
2024/04/17 04:14:32;;;;;;;7.90;4.90;;;;;;;;;;5272650;27;20002;-76
2024/04/17 04:16:58;;;;;;;7.27;5.63;;;;;;;;;;5242926;27;20010;-77
2024/04/17 04:19:23;;;;;;;8.60;4.97;;;;;;;;;;5242515;27;20002;-76
2024/04/17 04:21:49;;;;;;;8.03;4.80;;;;;;;;;;5242318;27;20006;-76
2024/04/17 04:24:15;;;;;;;6.93;4.73;;;;;;;;;;5242900;27;20085;-76
2024/04/17 04:26:41;;;;;;;11.87;5.87;;;;;;;;;;5242053;27;20054;-74
2024/04/17 04:29:07;;;;;;;9.27;5.07;;;;;;;;;;5243152;27;20076;-77
2024/04/17 04:31:32;;;;;;;7.20;5.03;;;;;;;;;;5241935;27;20446;-76
2024/04/17 04:33:58;;;;;;;15.60;5.93;;;;;;;;;;5272940;27;20046;-77
2024/04/17 04:36:24;;;;;;;8.27;5.63;;;;;;;;;;5242513;27;20508;-76
2024/04/17 04:38:49;;;;;;;7.07;5.17;;;;;;;;;;5242497;27;20034;-77
2024/04/17 04:41:15;;;;;;;8.93;5.13;;;;;;;;;;5242643;27;20021;-77
2024/04/17 04:43:41;;;;;;;6.43;4.27;;;;;;;;;;5242855;27;20017;-77
2024/04/17 04:46:06;;;;;;;8.20;5.70;;;;;;;;;;5242376;27;20346;-77
2024/04/17 04:48:32;;;;;;;7.33;5.30;;;;;;;;;;5272198;27;20310;-78
2024/04/17 04:50:57;;;;;;;6.40;5.03;;;;;;;;;;5241977;27;20036;-78
2024/04/17 04:53:24;;;;;;;7.90;5.23;;;;;;;;;;5242505;27;20003;-77
2024/04/17 04:56:01;;;;;;;6.77;4.43;;;;;;;;;;5272316;27;20006;-76
2024/04/17 04:58:27;;;;;;;7.97;5.27;;;;;;;;;;5242339;27;20006;-74
2024/04/17 05:00:52;;;;;;;6.43;4.43;;;;;;;;;;5242096;27;20002;-77
2024/04/17 05:03:18;;;;;;;6.77;4.20;;;;;;;;;;5272867;27;20002;-76
2024/04/17 05:05:44;;;;;;;7.50;4.40;;;;;;;;;;5271912;27;20007;-75
2024/04/17 05:08:10;;;;;;;9.53;4.30;;;;;;;;;;5242395;27;20433;-76
2024/04/17 05:10:36;;;;;;;5.97;4.80;;;;;;;;;;5241567;27;20355;-76
2024/04/17 05:13:01;;;;;;;8.17;4.77;;;;;;;;;;5272135;27;20021;-77
2024/04/17 05:15:27;;;;;;;5.50;4.00;;;;;;;;;;5271874;27;20449;-76
2024/04/17 05:17:53;;;;;;;6.33;3.63;;;;;;;;;;5242557;27;20017;-77
2024/04/17 05:20:19;;;;;;;4.97;3.10;;;;;;;;;;5259940;27;20038;-77
2024/04/17 05:22:45;;;;;;;6.17;3.13;;;;;;;;;;5235434;27;20013;-75
2024/04/17 05:25:12;;;;;;;8.07;3.03;;;;;;;;;;5269365;27;20415;-76
2024/04/17 05:27:37;;;;;;;5.53;3.10;;;;;;;;;;5270690;27;19998;-77
2024/04/17 05:30:05;;;;;;;3.47;2.33;;;;;;;;;;5271584;27;20013;-76
2024/04/17 05:32:31;;;;;;;5.23;3.03;;;;;;;;;;5248190;27;20006;-76
2024/04/17 05:34:56;;;;;;;6.13;2.00;;;;;;;;;;5261084;27;20106;-76
2024/04/17 05:37:23;;;;;;;4.60;2.20;;;;;;;;;;5238457;27;20077;-75
2024/04/17 05:39:50;;;;;;;35.03;9.77;;;;;;;;;;5242274;27;20457;-75
2024/04/17 05:42:15;;;;;;;5.20;2.43;;;;;;;;;;5268306;27;20013;-76
2024/04/17 05:44:41;;;;;;;5.93;1.87;;;;;;;;;;5276725;27;20383;-78
2024/04/17 05:47:06;;;;;;;3.23;1.70;;;;;;;;;;5243086;27;20030;-78
2024/04/17 05:49:32;;;;;;;2.70;1.93;;;;;;;;;;5266898;27;20076;-77
2024/04/17 05:51:58;;;;;;;2.77;1.60;;;;;;;;;;5248912;27;20373;-78
2024/04/17 05:54:24;;;;;;;2.90;1.23;;;;;;;;;;5270854;27;20707;-77
2024/04/17 05:56:50;;;;;;;2.00;1.33;;;;;;;;;;5247943;27;20664;-78
2024/04/17 05:59:16;;;;;;;3.07;1.40;;;;;;;;;;5267062;27;20014;-77
2024/04/17 06:01:42;;;;;;;3.33;1.97;;;;;;;;;;5254253;27;20080;-77
2024/04/17 06:04:08;;;;;;;3.17;1.80;;;;;;;;;;5265044;27;20003;-73
2024/04/17 06:06:34;;;;;;;4.07;1.40;;;;;;;;;;5238622;27;20039;-77
2024/04/17 06:09:00;;;;;;;5.00;1.40;;;;;;;;;;5245024;27;20021;-79
2024/04/17 06:11:26;;;;;;;2.53;1.53;;;;;;;;;;5240676;27;20010;-78
2024/04/17 06:13:51;;;;;;;2.20;1.23;;;;;;;;;;5228276;27;20085;-77
2024/04/17 06:16:17;;;;;;;3.50;1.20;;;;;;;;;;5244709;27;20454;-80
2024/04/17 06:18:42;;;;;;;1.30;1.20;;;;;;;;;;5274321;27;20010;-77
2024/04/17 06:21:08;;;;;;;2.43;1.10;;;;;;;;;;5252889;27;20017;-75
2024/04/17 06:23:34;;;;;;;3.50;1.30;;;;;;;;;;5224513;27;20002;-78
2024/04/17 06:25:59;;;;;;;2.13;1.43;;;;;;;;;;5253711;27;19998;-75
2024/04/17 06:28:26;;;;;;;3.50;1.83;;;;;;;;;;5240589;27;20018;-76
2024/04/17 06:30:52;;;;;;;2.53;1.50;;;;;;;;;;5242463;27;20466;-76
2024/04/17 06:33:20;;;;;;;1.80;1.37;;;;;;;;;;5269888;27;20438;-77
2024/04/17 06:35:46;;;;;;;3.83;2.60;;;;;;;;;;5247721;27;20003;-76
2024/04/17 06:38:12;;;;;;;4.63;1.83;;;;;;;;;;5251907;27;20057;-77
2024/04/17 06:40:37;;;;;;;4.83;1.50;;;;;;;;;;5239895;27;20021;-77
2024/04/17 06:43:03;;;;;;;6.10;1.63;;;;;;;;;;5245758;27;20701;-73
2024/04/17 06:45:28;;;;;;;1.83;1.00;;;;;;;;;;5243830;27;20002;-80
2024/04/17 06:47:57;;;;;;;4.03;1.70;;;;;;;;;;5269548;27;20016;-78
2024/04/17 06:50:23;;;;;;;1.33;1.00;;;;;;;;;;5237020;27;20002;-78
2024/04/17 06:52:48;;;;;;;2.77;2.10;;;;;;;;;;5244251;27;20006;-75
2024/04/17 06:55:14;;;;;;;2.07;1.40;;;;;;;;;;5226591;27;20319;-80
2024/04/17 06:57:39;;;;;;;5.03;1.47;;;;;;;;;;5232099;27;19998;-77
2024/04/17 07:00:09;;;;;;;2.50;1.80;;;;;;;;;;5266016;27;20120;-77
2024/04/17 07:02:35;;;;;;;2.80;1.57;;;;;;;;;;5254356;27;20093;-75
2024/04/17 07:05:01;;;;;;;3.75;1.23;;;;;;;;;;5228599;27;20006;-77
2024/04/17 07:07:27;;;;;;;5.82;1.85;;;;;;;;;;5250414;27;20002;-77
2024/04/17 07:09:53;;;;;;;4.18;1.17;;;;;;;;;;5257769;27;20370;-80
2024/04/17 07:12:32;;;;;;;3.92;1.20;;;;;;;;;;5226349;27;20354;-78
2024/04/17 07:15:02;;;;;;;6.15;1.25;;;;;;;;;;5186873;27;20140;-81
2024/04/17 07:17:27;;;;;;;2.53;1.00;;;;;;;;;;5257688;27;20002;-76
2024/04/17 07:19:53;;;;;;;1.42;1.27;;;;;;;;;;5258782;27;20025;-77
2024/04/17 07:22:19;;;;;;;3.40;1.33;;;;;;;;;;5223093;27;20009;-77
2024/04/17 07:24:44;;;;;;;1.80;1.70;;;;;;;;;;5227516;27;20002;-78
2024/04/17 07:27:10;;;;;;;3.63;1.52;;;;;;;;;;5249163;27;20010;-80
2024/04/17 07:29:36;;;;;;;3.55;1.77;;;;;;;;;;5235610;27;20446;-76
2024/04/17 07:32:05;;;;;;;2.05;1.80;;;;;;;;;;5232024;27;19998;-75
2024/04/17 07:34:31;;;;;;;3.35;1.92;;;;;;;;;;5255725;27;20014;-78
2024/04/17 07:36:56;;;;;;;2.05;1.70;;;;;;;;;;5258440;27;20030;-77
2024/04/17 07:39:22;;;;;;;3.13;1.58;;;;;;;;;;5232005;27;20037;-75
2024/04/17 07:41:49;;;;;;;3.25;1.83;;;;;;;;;;5229245;27;20007;-76
2024/04/17 07:44:16;;;;;;;6.68;2.88;;;;;;;;;;5198475;27;20002;-77
2024/04/17 07:46:42;;;;;;;2.70;2.28;;;;;;;;;;5265443;27;20021;-78
2024/04/17 07:49:08;;;;;;;2.15;1.73;;;;;;;;;;5225264;27;20054;-78
2024/04/17 07:51:39;;;;;;;1.95;1.80;;;;;;;;;;5228066;27;20125;-76
2024/04/17 07:54:04;;;;;;;2.75;2.15;;;;;;;;;;5216760;27;20017;-79
2024/04/17 07:56:33;;;;;;;9.57;2.30;;;;;;;;;;5223695;27;20038;-76
2024/04/17 07:59:15;;;;;;;2.63;1.60;;;;;;;;;;5255873;27;20010;-76
2024/04/17 08:01:42;;;;;;;1.33;1.23;;;;;;;;;;5231894;27;20018;-77
2024/04/17 08:04:08;;;;;;;3.47;1.58;;;;;;;;;;5222562;27;20071;-75
2024/04/17 08:06:33;;;;;;;5.35;1.70;;;;;;;;;;5258240;27;20030;-79
2024/04/17 08:08:59;;;;;;;2.83;1.08;;;;;;;;;;5230260;27;20007;-75
2024/04/17 08:11:35;;;;;;;18.17;10.70;;;;;;;;;;5256817;27;19998;-78
2024/04/17 08:14:01;;;;;;;5.78;2.97;;;;;;;;;;5252285;27;20058;-77
2024/04/17 08:16:27;;;;;;;3.30;2.60;;;;;;;;;;5238555;27;20003;-79
2024/04/17 08:18:52;;;;;;;8.23;1.90;;;;;;;;;;5262621;27;20005;-77
2024/04/17 08:21:18;;;;;;;4.90;2.10;;;;;;;;;;5262610;27;20053;-77
2024/04/17 08:23:47;;;;;;;4.68;1.80;;;;;;;;;;5227718;27;20021;-78
2024/04/17 08:26:13;;;;;;;2.33;1.42;;;;;;;;;;5236659;27;20029;-76
2024/04/17 08:28:38;;;;;;;1.92;1.50;;;;;;;;;;5241759;27;20443;-77
2024/04/17 08:31:04;;;;;;;4.53;2.15;;;;;;;;;;5269072;27;20122;-77
2024/04/17 08:33:31;;;;;;;5.45;2.20;;;;;;;;;;5224895;27;20101;-75
2024/04/17 08:35:59;;;;;;;4.32;2.38;;;;;;;;;;5223977;27;20003;-75
2024/04/17 08:38:26;;;;;;;5.53;3.10;;;;;;;;;;5220900;27;20017;-75
2024/04/17 08:40:52;;;;;;;2.92;1.98;;;;;;;;;;5230494;27;20010;-76
2024/04/17 08:43:28;;;;;;;6.22;2.45;;;;;;;;;;5246531;27;20449;-75
2024/04/17 08:45:55;;;;;;;2.00;1.60;;;;;;;;;;5206337;27;20517;-74
2024/04/17 08:48:25;;;;;;;4.88;1.45;;;;;;;;;;5234104;27;20010;-75
2024/04/17 08:50:52;;;;;;;5.15;1.45;;;;;;;;;;5261727;27;20014;-78
2024/04/17 08:53:19;;;;;;;4.40;1.63;;;;;;;;;;5241015;27;20002;-77
2024/04/17 08:55:45;;;;;;;1.75;1.30;;;;;;;;;;5232550;27;20013;-76
2024/04/17 08:58:11;;;;;;;6.68;2.38;;;;;;;;;;5229280;27;19998;-75
2024/04/17 09:00:38;;;;;;;3.42;1.98;;;;;;;;;;5223056;27;20074;-77
2024/04/17 09:03:11;;;;;;;3.50;2.35;;;;;;;;;;5223481;27;20002;-76
2024/04/17 09:05:36;;;;;;;4.78;3.08;;;;;;;;;;5204373;27;20006;-75
2024/04/17 09:08:02;;;;;;;1.48;1.30;;;;;;;;;;5258015;27;20021;-78
2024/04/17 09:10:28;;;;;;;5.97;1.98;;;;;;;;;;5202801;27;20065;-78
2024/04/17 09:12:54;;;;;;;8.02;2.22;;;;;;;;;;5225722;27;20006;-79
2024/04/17 09:15:20;;;;;;;3.53;1.75;;;;;;;;;;5227862;27;20002;-76
2024/04/17 09:17:50;;;;;;;2.28;1.50;;;;;;;;;;5223256;27;20002;-74
2024/04/17 09:20:17;;;;;;;3.92;2.28;;;;;;;;;;5221404;27;20085;-79
2024/04/17 09:22:42;;;;;;;2.55;1.60;;;;;;;;;;5219686;27;22473;-81
2024/04/17 09:25:19;;;;;;;3.38;1.90;;;;;;;;;;5221399;27;20014;-80
2024/04/17 09:27:45;;;;;;;2.08;1.50;;;;;;;;;;5246390;27;20222;-75
2024/04/17 09:30:13;;;;;;;2.42;1.60;;;;;;;;;;5228987;27;20999;-76
2024/04/17 09:32:42;;;;;;;4.10;1.95;;;;;;;;;;5221959;27;20002;-79
2024/04/17 09:35:11;;;;;;;4.68;1.70;;;;;;;;;;5225675;27;19994;-79
2024/04/17 09:37:39;;;;;;;5.63;2.22;;;;;;;;;;5227532;27;20006;-77
2024/04/17 09:40:10;;;;;;;1.73;1.40;;;;;;;;;;5243044;27;20021;-74
2024/04/17 09:42:37;;;;;;;2.85;1.42;;;;;;;;;;5255621;27;22267;-77
2024/04/17 09:45:04;;;;;;;2.45;1.30;;;;;;;;;;5251077;27;20016;-77
2024/04/17 09:47:31;;;;;;;3.38;1.80;;;;;;;;;;5224591;27;20006;-77
2024/04/17 09:50:00;;;;;;;6.97;1.90;;;;;;;;;;5190644;27;20408;-76
2024/04/17 09:52:29;;;;;;;3.60;1.60;;;;;;;;;;5244582;27;20006;-75
2024/04/17 09:54:56;;;;;;;1.73;1.20;;;;;;;;;;5199650;27;20041;-78
2024/04/17 09:57:22;;;;;;;2.75;1.50;;;;;;;;;;5228612;27;20014;-75
2024/04/17 09:59:49;;;;;;;3.58;1.63;;;;;;;;;;5213057;27;20002;-77
2024/04/17 10:02:16;;;;;;;3.17;1.52;;;;;;;;;;5225343;27;20009;-74
2024/04/17 10:04:45;;;;;;;1.08;0.98;;;;;;;;;;5219588;27;20834;-74
2024/04/17 10:07:13;;;;;;;1.42;1.30;;;;;;;;;;5229402;27;20798;-78
2024/04/17 10:09:43;;;;;;;2.20;1.08;;;;;;;;;;5218573;27;20033;-75
2024/04/17 10:12:13;;;;;;;2.53;1.20;;;;;;;;;;5218247;27;20007;-77
2024/04/17 10:14:39;;;;;;;1.58;1.27;;;;;;;;;;5204910;27;20009;-79
2024/04/17 10:17:09;;;;;;;4.15;1.60;;;;;;;;;;5255982;27;20114;-77
2024/04/17 10:19:35;;;;;;;4.03;1.70;;;;;;;;;;5195529;27;20015;-79
2024/04/17 10:22:05;;;;;;;1.80;1.40;;;;;;;;;;5197092;27;20014;-74
2024/04/17 10:24:31;;;;;;;3.55;1.13;;;;;;;;;;5192789;27;20010;-75
2024/04/17 10:27:01;;;;;;;1.80;0.90;;;;;;;;;;5238998;27;20529;-79
2024/04/17 10:29:30;;;;;;;3.08;1.27;;;;;;;;;;5242986;27;20003;-80
2024/04/17 10:31:59;;;;;;;3.83;1.25;;;;;;;;;;5221372;27;20068;-77
2024/04/17 10:34:30;;;;;;;3.17;1.60;;;;;;;;;;5248247;27;20890;-77
2024/04/17 10:36:59;;;;;;;2.85;1.50;;;;;;;;;;5228875;27;20089;-77
2024/04/17 10:39:28;;;;;;;2.15;1.40;;;;;;;;;;5227326;27;20014;-78
2024/04/17 10:41:53;;;;;;;2.33;1.40;;;;;;;;;;5253335;27;20009;-76
2024/04/17 10:44:20;;;;;;;1.98;1.27;;;;;;;;;;5228407;27;20152;-79
2024/04/17 10:46:46;;;;;;;4.03;1.67;;;;;;;;;;5226537;27;20013;-76
2024/04/17 10:49:21;;;;;;;3.63;1.40;;;;;;;;;;5257589;27;20276;-76
2024/04/17 10:51:47;;;;;;;5.25;1.77;;;;;;;;;;5223211;27;20110;-78
2024/04/17 10:54:21;;;;;;;2.50;1.77;;;;;;;;;;5232774;27;20010;-76
2024/04/17 10:56:47;;;;;;;1.63;1.50;;;;;;;;;;5207168;27;20062;-79
2024/04/17 10:59:12;;;;;;;2.75;1.30;;;;;;;;;;5232298;27;20006;-80
2024/04/17 11:01:41;;;;;;;4.10;1.60;;;;;;;;;;5254005;27;20007;-78
2024/04/17 11:04:06;;;;;;;3.40;1.70;;;;;;;;;;5224003;27;20003;-77
2024/04/17 11:06:32;;;;;;;4.57;1.67;;;;;;;;;;5228582;27;20168;-76
2024/04/17 11:08:58;;;;;;;6.32;1.85;;;;;;;;;;5262262;27;20002;-77
2024/04/17 11:11:49;;;;;;;7.35;3.10;;;;;;;;;;5237522;27;20010;-77
2024/04/17 11:14:15;;;;;;;3.85;1.98;;;;;;;;;;5220906;27;20075;-77
2024/04/17 11:16:41;;;;;;;6.45;1.30;;;;;;;;;;5236430;27;20002;-77
2024/04/17 11:19:07;;;;;;;2.20;1.60;;;;;;;;;;5231142;27;20255;-79
2024/04/17 11:21:33;;;;;;;5.35;1.77;;;;;;;;;;5231479;27;20019;-77
2024/04/17 11:23:58;;;;;;;2.28;0.80;;;;;;;;;;5254641;27;20010;-77
2024/04/17 11:26:26;;;;;;;2.92;1.20;;;;;;;;;;5235185;27;20251;-74
2024/04/17 11:28:52;;;;;;;2.47;1.20;;;;;;;;;;5204610;27;20045;-77
2024/04/17 11:31:18;;;;;;;5.93;1.00;;;;;;;;;;5235130;27;19998;-76
2024/04/17 11:33:46;;;;;;;4.20;1.35;;;;;;;;;;5256567;27;20822;-76
2024/04/17 11:36:14;;;;;;;3.95;1.30;;;;;;;;;;5238900;27;20002;-79
2024/04/17 11:38:45;;;;;;;1.92;1.02;;;;;;;;;;5240061;27;20077;-77
2024/04/17 11:41:15;;;;;;;2.25;1.45;;;;;;;;;;5215277;27;20048;-76
2024/04/17 11:43:41;;;;;;;3.40;1.40;;;;;;;;;;5264136;27;20032;-78
2024/04/17 11:46:10;;;;;;;4.07;1.67;;;;;;;;;;5238917;27;20003;-76
2024/04/17 11:48:36;;;;;;;2.03;1.30;;;;;;;;;;5240625;27;20009;-78
2024/04/17 11:51:02;;;;;;;3.40;1.30;;;;;;;;;;5268806;27;19998;-78
2024/04/17 11:53:28;;;;;;;2.80;1.35;;;;;;;;;;5262241;27;20525;-77
2024/04/17 11:55:54;;;;;;;9.10;1.98;;;;;;;;;;5213642;27;20002;-77
2024/04/17 11:58:20;;;;;;;4.30;1.42;;;;;;;;;;5257815;27;20030;-77
2024/04/17 12:00:45;;;;;;;2.50;1.13;;;;;;;;;;5231588;27;20006;-79
2024/04/17 12:03:11;;;;;;;1.80;1.17;;;;;;;;;;5253259;27;20054;-80
2024/04/17 12:05:39;;;;;;;4.07;1.58;;;;;;;;;;5264393;27;20038;-77
2024/04/17 12:08:05;;;;;;;6.10;2.10;;;;;;;;;;5214075;27;20145;-77
2024/04/17 12:10:31;;;;;;;1.95;1.17;;;;;;;;;;5265346;27;20017;-81
2024/04/17 12:12:57;;;;;;;1.83;1.05;;;;;;;;;;5259548;27;20018;-76
2024/04/17 12:15:24;;;;;;;1.80;1.05;;;;;;;;;;5237543;27;20029;-75
2024/04/17 12:17:49;;;;;;;5.90;1.58;;;;;;;;;;5266611;27;20072;-80
2024/04/17 12:20:16;;;;;;;2.53;1.30;;;;;;;;;;5264044;27;20002;-80
2024/04/17 12:22:45;;;;;;;3.28;1.20;;;;;;;;;;5231942;27;20018;-77
2024/04/17 12:27:54;;;;;;;10.50;1.27;;;;;;;;;;5268835;27;20017;-78
2024/04/17 12:30:20;;;;;;;5.18;2.20;;;;;;;;;;5243463;27;20006;-79
2024/04/17 12:32:45;;;;;;;3.30;1.48;;;;;;;;;;5271617;27;20002;-77
2024/04/17 12:35:13;;;;;;;2.47;1.20;;;;;;;;;;5272677;27;20006;-78
2024/04/17 12:37:42;;;;;;;2.45;1.20;;;;;;;;;;5272144;27;20014;-76
2024/04/17 12:40:08;;;;;;;3.28;1.48;;;;;;;;;;5243395;27;20077;-78
2024/04/17 12:42:34;;;;;;;3.58;1.38;;;;;;;;;;5243179;27;20013;-75
2024/04/17 12:44:59;;;;;;;2.13;1.08;;;;;;;;;;5249007;27;20500;-79
2024/04/17 12:47:25;;;;;;;2.45;1.10;;;;;;;;;;5272988;27;20014;-77
2024/04/17 12:49:51;;;;;;;2.85;1.00;;;;;;;;;;5248449;27;20010;-79
2024/04/17 12:52:16;;;;;;;2.35;1.08;;;;;;;;;;5269271;27;20128;-78
2024/04/17 12:54:42;;;;;;;2.65;1.08;;;;;;;;;;5242135;27;20002;-75
2024/04/17 12:57:08;;;;;;;3.15;1.30;;;;;;;;;;5243395;27;20013;-79
2024/04/17 12:59:34;;;;;;;1.50;1.15;;;;;;;;;;5244134;27;20012;-76
2024/04/17 13:02:00;;;;;;;5.43;2.22;;;;;;;;;;5243046;27;20743;-77
2024/04/17 13:04:26;;;;;;;1.67;1.20;;;;;;;;;;5214160;27;19994;-76
2024/04/17 13:06:56;;;;;;;4.20;1.85;;;;;;;;;;5241438;27;20003;-76
2024/04/17 13:09:22;;;;;;;1.52;1.20;;;;;;;;;;5259030;27;20006;-76
2024/04/17 13:11:49;;;;;;;4.10;1.33;;;;;;;;;;5268205;27;20191;-76
2024/04/17 13:14:14;;;;;;;4.75;1.30;;;;;;;;;;5242808;27;20002;-76
2024/04/17 13:16:40;;;;;;;2.63;1.10;;;;;;;;;;5241791;27;20046;-79
2024/04/17 13:19:05;;;;;;;1.20;0.90;;;;;;;;;;5240699;27;20367;-78
2024/04/17 13:21:34;;;;;;;4.10;1.80;;;;;;;;;;5238348;27;20601;-78
2024/04/17 13:23:59;;;;;;;4.35;2.00;;;;;;;;;;5251933;27;20360;-77
2024/04/17 13:26:25;;;;;;;6.53;2.20;;;;;;;;;;5267732;27;19998;-76
2024/04/17 13:28:50;;;;;;;2.40;1.27;;;;;;;;;;5242488;27;20379;-76
2024/04/17 13:31:16;;;;;;;3.20;1.90;;;;;;;;;;5241545;27;20041;-77
2024/04/17 13:33:42;;;;;;;1.95;1.45;;;;;;;;;;5231535;27;20102;-79
2024/04/17 13:36:10;;;;;;;4.03;1.15;;;;;;;;;;5249144;27;19998;-79
2024/04/17 13:38:36;;;;;;;1.83;1.08;;;;;;;;;;5271028;27;20013;-78
2024/04/17 13:41:04;;;;;;;2.60;1.52;;;;;;;;;;5272042;27;20017;-82
2024/04/17 13:43:30;;;;;;;4.22;1.40;;;;;;;;;;5240761;27;20002;-77
2024/04/17 13:45:57;;;;;;;3.47;1.83;;;;;;;;;;5239881;27;19995;-77
2024/04/17 13:48:23;;;;;;;8.75;1.77;;;;;;;;;;5250322;27;20013;-77
2024/04/17 13:51:02;;;;;;;4.57;1.60;;;;;;;;;;5267617;27;20022;-75
2024/04/17 13:53:28;;;;;;;5.10;1.65;;;;;;;;;;5249317;27;20042;-78
2024/04/17 13:55:54;;;;;;;2.95;1.40;;;;;;;;;;5239948;27;20017;-78
2024/04/17 13:58:21;;;;;;;2.83;1.50;;;;;;;;;;5240421;27;20014;-77
2024/04/17 14:00:47;;;;;;;1.58;1.10;;;;;;;;;;5240953;27;20003;-79
2024/04/17 14:03:14;;;;;;;4.82;1.50;;;;;;;;;;5270398;27;19998;-73
2024/04/17 14:05:40;;;;;;;8.23;3.95;;;;;;;;;;5271796;27;20006;-76
2024/04/17 14:08:07;;;;;;;5.40;2.38;;;;;;;;;;5247649;27;19998;-81
2024/04/17 14:10:33;;;;;;;1.73;1.13;;;;;;;;;;5244954;27;20014;-82
2024/04/17 14:13:00;;;;;;;5.80;1.35;;;;;;;;;;5251272;27;20457;-80
2024/04/17 14:15:27;;;;;;;1.80;1.17;;;;;;;;;;5280072;27;20008;-79
2024/04/17 14:17:54;;;;;;;4.05;1.45;;;;;;;;;;5270388;27;20033;-79
2024/04/17 14:20:20;;;;;;;1.95;1.30;;;;;;;;;;5247001;27;20419;-79
2024/04/17 14:22:45;;;;;;;5.40;2.08;;;;;;;;;;5275085;27;20016;-82
2024/04/17 14:25:12;;;;;;;4.20;1.80;;;;;;;;;;5242692;27;20079;-77
2024/04/17 14:27:38;;;;;;;1.65;1.13;;;;;;;;;;5273395;27;20034;-74
2024/04/17 14:30:05;;;;;;;2.15;1.15;;;;;;;;;;5239727;27;20418;-79
2024/04/17 14:32:30;;;;;;;1.77;1.25;;;;;;;;;;5275697;27;20002;-78
2024/04/17 14:34:56;;;;;;;6.10;1.95;;;;;;;;;;5274294;27;20013;-79
2024/04/17 14:37:22;;;;;;;2.78;1.00;;;;;;;;;;5240821;27;20362;-76
2024/04/17 14:39:51;;;;;;;1.05;0.90;;;;;;;;;;5233237;27;20002;-76
2024/04/17 14:42:17;;;;;;;2.22;1.20;;;;;;;;;;5264406;27;20830;-77